• Join FlightAware (Why Join?)
  • Login
  • US Flag 
08:32AM EDT


 

Airport Tracker/Info


-or-


 

Live Flight TrackerFlight Track Log ✈ KAP927 ✈ 04-May-2013 ✈ KBED - KALB

Flight Track Log - Related Links

Times and Time Zones

All times are in EDT time to prevent confusion due to time zone crossing. See the KAP927 flight status page for this flight to view local times or setup timezone preferences in your user account.

Time Position Orientation Groundspeed Altitude Reporting Facility
EDT Latitude Longitude Course Direction KTS MPH feet Rate Location/Type
01:33PM 42.5833 -72.6167 279° West 179 206 8,700  Level KA90
01:35PM 42.5849 -72.6605 281° West  Level FlightAware Approximate
01:39PM 42.7193 -73.5065 279° West  Level Estimated
01:42PM 42.6250 -72.9411 281° West  Level FlightAware Approximate
01:43PM 42.6307 -72.9812 281° West  Level FlightAware Approximate
01:44PM 42.6333 -73.0217 270° West  Level FlightAware Approximate
01:45PM 42.6333 -73.0626 270° West  Level FlightAware Approximate
01:46PM 42.6369 -73.1028 284° West  Level FlightAware Approximate
01:47PM 42.6441 -73.1425 284° West  Level FlightAware Approximate
01:47PM 42.7178 -73.5844 280° West 184 212 3,600  Level Boston Center
01:48PM 42.6513 -73.1821 284° West  Level FlightAware Approximate
01:48PM 42.7317 -73.6414 288° West 190 219 3,200  Level Boston Center
01:49PM 42.6585 -73.2218 284° West  Level FlightAware Approximate
01:49PM 42.7497 -73.7039 291° West 174 200 2,100  Level Boston Center
01:50PM 42.6657 -73.2615 284° West  Level FlightAware Approximate
01:50PM 42.7511 -73.7633 272° West 128 147 1,100  Level Boston Center
01:51PM 42.6751 -73.3003 289° West  Level FlightAware Approximate
01:52PM 42.6841 -73.3392 280° West  Level FlightAware Approximate
01:52PM 42.7333 -73.8000 270° West  Level FlightAware Approximate
01:53PM 42.6894 -73.3795 280° West  Level FlightAware Approximate
01:59PM 42.7491 -73.8020 270° West  Level Estimated
02:00PM 42.7491 -73.8020 270° West  Level Estimated
02:01PM 42.7491 -73.8020 270° West  Level Estimated
02:02PM 42.7491 -73.8020 270° West  Level Estimated